createdAt,value
2019-05-29T00:00:10.207Z,43.70
2019-05-29T00:02:40.843Z,43.90
2019-05-29T00:05:12.196Z,43.20
2019-05-29T00:07:42.865Z,44.10
2019-05-29T00:10:14.366Z,43.90
2019-05-29T00:12:45.448Z,44.20
2019-05-29T00:15:15.855Z,43.80
2019-05-29T00:17:46.220Z,43.80
2019-05-29T00:20:16.615Z,44.00
2019-05-29T00:22:47.153Z,43.10
2019-05-29T00:25:18.866Z,43.20
2019-05-29T00:27:49.737Z,43.20
2019-05-29T00:30:20.137Z,43.20
2019-05-29T00:32:50.526Z,43.60
2019-05-29T00:35:20.926Z,44.30
2019-05-29T00:37:51.288Z,43.50
2019-05-29T00:40:21.702Z,43.10
2019-05-29T00:42:52.404Z,44.30
2019-05-29T00:45:22.775Z,44.70
2019-05-29T00:47:53.201Z,44.10
2019-05-29T00:50:23.539Z,43.10
2019-05-29T00:52:53.938Z,43.20
2019-05-29T00:55:24.673Z,43.30
2019-05-29T00:57:55.380Z,43.20
2019-05-29T01:00:25.776Z,43.10
2019-05-29T01:02:56.206Z,42.50
2019-05-29T01:05:26.717Z,42.50
2019-05-29T01:07:57.098Z,42.90
2019-05-29T01:10:27.492Z,42.50
2019-05-29T01:12:57.913Z,42.30
2019-05-29T01:15:28.259Z,42.10
2019-05-29T01:17:58.601Z,42.60
2019-05-29T01:20:29.005Z,41.80
2019-05-29T01:22:59.373Z,42.30
2019-05-29T01:25:30.019Z,41.70
2019-05-29T01:28:00.752Z,41.60
2019-05-29T01:30:31.131Z,41.50
2019-05-29T01:33:01.799Z,41.90
2019-05-29T01:35:32.600Z,42.30
2019-05-29T01:38:03.269Z,42.30
2019-05-29T01:40:33.627Z,42.30
2019-05-29T01:43:04.261Z,43.20
2019-05-29T01:45:34.656Z,43.10
2019-05-29T01:48:04.987Z,43.40
2019-05-29T01:50:35.712Z,43.70
2019-05-29T01:53:06.359Z,43.70
2019-05-29T01:55:36.746Z,44.10
2019-05-29T01:58:07.096Z,44.20
2019-05-29T02:00:37.453Z,43.90
2019-05-29T02:03:08.188Z,44.10
2019-05-29T02:05:38.626Z,43.40
2019-05-29T02:08:08.986Z,43.40
2019-05-29T02:10:39.330Z,43.70
2019-05-29T02:13:09.689Z,43.70
2019-05-29T02:15:40.541Z,44.50
2019-05-29T02:18:11.279Z,44.60
2019-05-29T02:20:41.915Z,44.90
2019-05-29T02:23:12.717Z,45.70
2019-05-29T02:25:43.077Z,46.10
2019-05-29T02:28:13.477Z,46.50
2019-05-29T02:30:43.830Z,47.00
2019-05-29T02:33:14.196Z,47.70
2019-05-29T02:35:44.575Z,47.90
2019-05-29T02:38:14.959Z,48.50
2019-05-29T02:40:45.375Z,48.50
2019-05-29T02:43:16.110Z,48.90
2019-05-29T02:45:54.473Z,49.20
2019-05-29T02:48:20.809Z,49.50
2019-05-29T02:50:51.582Z,49.90
2019-05-29T02:53:22.423Z,50.40
2019-05-29T02:55:52.774Z,50.40
2019-05-29T02:58:24.076Z,50.70
2019-05-29T03:00:55.868Z,50.60
2019-05-29T03:03:28.901Z,50.30
2019-05-29T03:05:58.777Z,51.00
2019-05-29T03:08:31.780Z,51.00
2019-05-29T03:11:01.855Z,50.40
2019-05-29T03:13:33.461Z,50.90
2019-05-29T03:16:12.983Z,51.10
2019-05-29T03:18:36.727Z,50.70
2019-05-29T03:21:07.139Z,51.20
2019-05-29T03:23:37.533Z,51.50
2019-05-29T03:26:07.874Z,52.00
2019-05-29T03:28:38.525Z,51.90
2019-05-29T03:31:09.394Z,52.10
2019-05-29T03:33:48.289Z,52.10
2019-05-29T03:36:11.919Z,52.00
2019-05-29T03:38:42.268Z,51.70
2019-05-29T03:41:12.629Z,52.00
2019-05-29T03:43:43.007Z,52.10
2019-05-29T03:46:29.870Z,52.00
2019-05-29T03:48:45.858Z,52.10
2019-05-29T03:51:16.572Z,52.10
2019-05-29T03:53:47.322Z,52.10
2019-05-29T03:56:17.688Z,51.70
2019-05-29T03:58:48.096Z,51.60
2019-05-29T04:01:18.470Z,52.10
2019-05-29T04:03:49.188Z,52.10
2019-05-29T04:06:19.587Z,52.70
2019-05-29T04:08:49.960Z,52.40
2019-05-29T04:11:20.336Z,52.70
2019-05-29T04:13:51.327Z,52.70
2019-05-29T04:16:21.739Z,52.20
2019-05-29T04:18:52.572Z,52.20
2019-05-29T04:21:22.938Z,51.70
2019-05-29T04:23:53.469Z,52.20
2019-05-29T04:26:25.610Z,52.40
2019-05-29T04:28:55.972Z,52.20
2019-05-29T04:31:28.106Z,51.80
2019-05-29T04:33:59.004Z,52.30
2019-05-29T04:36:30.767Z,51.20
2019-05-29T04:39:01.439Z,52.00
2019-05-29T04:41:32.770Z,51.70
2019-05-29T04:44:03.273Z,51.50
2019-05-29T04:46:34.131Z,50.10
2019-05-29T04:49:04.983Z,49.50
2019-05-29T04:51:37.164Z,49.40
2019-05-29T04:54:08.062Z,49.60
2019-05-29T04:56:39.115Z,50.10
2019-05-29T04:59:09.946Z,49.40
2019-05-29T05:01:40.322Z,47.50
2019-05-29T05:04:10.692Z,46.80
2019-05-29T05:06:41.065Z,46.80
2019-05-29T05:09:12.273Z,47.70
2019-05-29T05:11:42.648Z,47.80
2019-05-29T05:14:13.069Z,47.00
2019-05-29T05:16:43.437Z,47.10
2019-05-29T05:19:16.776Z,47.70
2019-05-29T05:21:46.559Z,46.70
2019-05-29T05:24:16.927Z,46.70
2019-05-29T05:26:47.788Z,46.90
2019-05-29T05:29:18.156Z,46.70
2019-05-29T05:31:49.029Z,46.40
2019-05-29T05:34:19.387Z,45.60
2019-05-29T05:36:49.734Z,45.90
2019-05-29T05:39:20.165Z,45.20
2019-05-29T05:41:50.602Z,46.40
2019-05-29T05:44:20.986Z,46.80
2019-05-29T05:46:51.917Z,45.30
2019-05-29T05:49:22.317Z,44.80
2019-05-29T05:51:52.665Z,44.90
2019-05-29T05:54:24.685Z,44.70
2019-05-29T05:56:55.201Z,45.40
2019-05-29T05:59:25.599Z,45.10
2019-05-29T06:01:56.315Z,43.90
2019-05-29T06:04:26.771Z,42.20
2019-05-29T06:06:57.488Z,39.70
2019-05-29T06:09:27.900Z,40.10
2019-05-29T06:11:58.230Z,40.70
2019-05-29T06:14:28.984Z,41.50
2019-05-29T06:16:59.750Z,38.40
2019-05-29T06:19:30.408Z,39.30
2019-05-29T06:22:01.088Z,39.40
2019-05-29T06:24:33.452Z,37.60
2019-05-29T06:27:03.786Z,37.70
2019-05-29T06:29:35.231Z,37.70
2019-05-29T06:32:05.721Z,39.10
2019-05-29T06:34:37.457Z,39.10
2019-05-29T06:37:07.950Z,37.90
2019-05-29T06:39:39.600Z,36.70
2019-05-29T06:42:10.320Z,36.20
2019-05-29T06:44:41.961Z,36.50
2019-05-29T06:47:12.906Z,35.50
2019-05-29T06:49:44.367Z,35.20
2019-05-29T06:52:14.955Z,35.30
2019-05-29T06:54:45.390Z,35.30
2019-05-29T06:57:15.727Z,35.70
2019-05-29T06:59:46.099Z,36.70
2019-05-29T07:02:16.468Z,37.30
2019-05-29T07:04:47.011Z,37.10
2019-05-29T07:07:17.348Z,37.60
2019-05-29T07:09:48.069Z,36.80
2019-05-29T07:12:18.450Z,36.30
2019-05-29T07:14:48.856Z,35.20
2019-05-29T07:17:19.511Z,36.60
2019-05-29T07:20:02.846Z,36.00
2019-05-29T07:22:21.976Z,36.70
2019-05-29T07:24:52.685Z,35.90
2019-05-29T07:27:23.364Z,35.80
2019-05-29T07:29:53.998Z,34.90
2019-05-29T07:32:24.402Z,34.90
2019-05-29T07:35:03.079Z,33.90
2019-05-29T07:37:26.869Z,33.40
2019-05-29T07:39:57.505Z,32.40
2019-05-29T07:42:27.914Z,31.90
2019-05-29T07:44:58.256Z,32.30
2019-05-29T07:47:28.654Z,31.40
2019-05-29T07:49:59.022Z,32.50
2019-05-29T07:52:29.459Z,32.10
2019-05-29T07:54:59.818Z,31.30
2019-05-29T07:57:30.471Z,31.60
2019-05-29T08:00:00.831Z,32.00
2019-05-29T08:02:31.479Z,29.70
2019-05-29T08:05:02.131Z,29.70
2019-05-29T08:07:33.103Z,29.70
2019-05-29T08:10:06.745Z,29.50
2019-05-29T08:12:41.673Z,30.10
2019-05-29T08:15:09.327Z,30.70
2019-05-29T08:17:40.004Z,29.60
2019-05-29T08:20:10.529Z,29.10
2019-05-29T08:22:42.280Z,28.90
2019-05-29T08:25:13.581Z,28.50
2019-05-29T08:27:44.716Z,28.30
2019-05-29T08:30:15.269Z,27.70
2019-05-29T08:32:46.919Z,27.30
2019-05-29T08:35:17.420Z,28.20
2019-05-29T08:37:49.129Z,27.40
2019-05-29T08:40:20.499Z,26.70
2019-05-29T08:42:51.470Z,26.90
2019-05-29T08:45:21.810Z,27.70
2019-05-29T08:47:52.465Z,27.30
2019-05-29T08:50:22.803Z,27.20
2019-05-29T08:52:53.578Z,27.20
2019-05-29T08:55:24.323Z,27.70
2019-05-29T08:57:54.726Z,27.30
2019-05-29T09:00:25.096Z,26.90
2019-05-29T09:02:55.523Z,27.00
2019-05-29T09:05:25.879Z,27.40
2019-05-29T09:07:59.312Z,26.50
2019-05-29T09:10:29.917Z,26.80
2019-05-29T09:13:04.677Z,26.80
2019-05-29T09:15:32.437Z,26.90
2019-05-29T09:18:03.263Z,26.10
2019-05-29T09:20:57.868Z,25.90
2019-05-29T09:23:05.992Z,26.50
2019-05-29T09:25:36.350Z,25.80
2019-05-29T09:28:18.357Z,25.90
2019-05-29T09:30:48.396Z,25.60
2019-05-29T09:33:21.320Z,26.30
2019-05-29T09:35:51.218Z,27.40
2019-05-29T09:38:22.921Z,27.10
2019-05-29T09:40:53.674Z,25.80
2019-05-29T09:43:29.713Z,26.70
2019-05-29T09:45:56.241Z,24.50
2019-05-29T09:48:28.612Z,24.70
2019-05-29T09:50:58.888Z,24.90
2019-05-29T09:53:29.521Z,25.60
2019-05-29T09:56:00.895Z,24.80
2019-05-29T09:58:31.584Z,26.70
2019-05-29T10:01:18.327Z,25.00
2019-05-29T10:03:34.832Z,24.20
2019-05-29T10:06:09.199Z,24.00
2019-05-29T10:08:37.759Z,24.30
2019-05-29T10:11:10.716Z,23.80
2019-05-29T10:13:40.919Z,23.90
2019-05-29T10:16:11.310Z,24.10
2019-05-29T10:18:41.805Z,23.90
2019-05-29T10:21:12.156Z,24.30
2019-05-29T10:23:42.497Z,23.30
2019-05-29T10:26:12.893Z,22.60
2019-05-29T10:28:55.775Z,23.20
2019-05-29T10:31:16.011Z,23.10
2019-05-29T10:33:48.270Z,22.60
2019-05-29T10:36:19.057Z,22.70
2019-05-29T10:38:50.718Z,23.40
2019-05-29T10:41:21.150Z,21.90
2019-05-29T10:43:53.265Z,22.60
2019-05-29T10:46:24.151Z,22.00
2019-05-29T10:48:56.670Z,22.20
2019-05-29T10:51:27.163Z,21.60
2019-05-29T10:53:59.132Z,21.30
2019-05-29T10:56:29.706Z,21.30
2019-05-29T10:59:00.360Z,21.30
2019-05-29T11:01:30.915Z,21.40
2019-05-29T11:04:01.252Z,21.90
2019-05-29T11:06:31.689Z,22.20
2019-05-29T11:09:02.023Z,22.10
2019-05-29T11:11:32.725Z,22.00
2019-05-29T11:14:03.092Z,21.90
2019-05-29T11:16:33.479Z,23.60
2019-05-29T11:19:03.912Z,24.60
2019-05-29T11:21:34.366Z,23.00
2019-05-29T11:24:05.329Z,22.60
2019-05-29T11:26:35.707Z,22.10
2019-05-29T11:29:06.240Z,22.90
2019-05-29T11:31:36.603Z,21.70
2019-05-29T11:34:07.260Z,21.70
2019-05-29T11:36:37.621Z,22.30
2019-05-29T11:39:09.791Z,21.60
2019-05-29T11:41:40.155Z,21.70
2019-05-29T11:44:10.515Z,21.70
2019-05-29T11:46:40.863Z,22.60
2019-05-29T11:49:11.233Z,22.40
2019-05-29T11:51:44.199Z,21.30
2019-05-29T11:54:14.130Z,21.20
2019-05-29T11:56:44.521Z,21.50
2019-05-29T11:59:14.886Z,21.30
2019-05-29T12:01:50.380Z,21.40
2019-05-29T12:04:25.908Z,20.50
2019-05-29T12:06:49.392Z,20.70
2019-05-29T12:09:31.879Z,19.60
2019-05-29T12:11:53.926Z,20.50
2019-05-29T12:14:24.811Z,20.50
2019-05-29T12:16:55.946Z,19.50
2019-05-29T12:19:26.401Z,19.90
2019-05-29T12:21:58.223Z,19.80
2019-05-29T12:24:28.756Z,19.80
2019-05-29T12:26:59.116Z,20.30
2019-05-29T12:29:29.806Z,19.60
2019-05-29T12:32:02.181Z,19.80
2019-05-29T12:34:32.620Z,19.70
2019-05-29T12:37:03.887Z,20.20
2019-05-29T12:39:34.409Z,20.30
2019-05-29T12:42:05.143Z,21.20
2019-05-29T12:44:35.483Z,19.10
2019-05-29T12:47:05.903Z,19.60
2019-05-29T12:49:36.519Z,20.20
2019-05-29T12:52:08.680Z,19.60
2019-05-29T12:54:38.983Z,19.70
2019-05-29T12:57:09.380Z,18.40
2019-05-29T12:59:41.739Z,18.40
2019-05-29T13:02:12.486Z,18.50
2019-05-29T13:05:06.253Z,18.60
2019-05-29T13:07:15.045Z,18.60
2019-05-29T13:09:45.446Z,19.30
2019-05-29T13:12:15.780Z,18.70
2019-05-29T13:14:46.128Z,19.10
2019-05-29T13:17:16.820Z,18.20
2019-05-29T13:19:47.153Z,19.50
2019-05-29T13:22:17.560Z,19.70
2019-05-29T13:24:48.342Z,19.80
2019-05-29T13:27:18.667Z,19.10
2019-05-29T13:29:49.139Z,18.70
2019-05-29T13:32:19.518Z,18.40
2019-05-29T13:34:49.900Z,18.40
2019-05-29T13:37:20.275Z,18.00
2019-05-29T13:39:50.615Z,18.20
2019-05-29T13:42:21.254Z,18.20
2019-05-29T13:44:52.091Z,19.30
2019-05-29T13:47:22.910Z,20.10
2019-05-29T13:50:13.131Z,20.10
2019-05-29T13:52:43.514Z,20.00
2019-05-29T13:55:14.214Z,20.90
2019-05-29T13:57:44.614Z,19.40
2019-05-29T14:00:32.495Z,19.80
2019-05-29T14:02:49.447Z,18.70
2019-05-29T14:05:20.392Z,18.00
2019-05-29T14:07:51.396Z,18.20
2019-05-29T14:10:22.063Z,16.90
2019-05-29T14:12:53.103Z,17.70
2019-05-29T14:15:23.845Z,18.40
2019-05-29T14:17:54.183Z,18.30
2019-05-29T14:20:24.564Z,18.30
2019-05-29T14:22:54.951Z,18.40
2019-05-29T14:25:25.363Z,18.40
2019-05-29T14:27:56.095Z,18.40
2019-05-29T14:30:26.498Z,17.50
2019-05-29T14:32:56.833Z,17.50
2019-05-29T14:35:27.217Z,18.20
2019-05-29T14:37:57.551Z,18.20
2019-05-29T14:40:27.985Z,18.20
2019-05-29T14:42:58.323Z,18.10
2019-05-29T14:45:28.762Z,18.10
2019-05-29T14:47:59.543Z,18.00
2019-05-29T14:50:29.912Z,18.00
2019-05-29T14:53:00.281Z,18.10
2019-05-29T14:55:30.722Z,18.40
2019-05-29T14:58:01.080Z,18.30
2019-05-29T15:00:31.806Z,18.00
2019-05-29T15:03:03.317Z,17.60
2019-05-29T15:05:33.894Z,18.10
2019-05-29T15:08:05.675Z,18.40
2019-05-29T15:10:36.259Z,18.20
2019-05-29T15:13:07.202Z,18.50
2019-05-29T15:15:38.709Z,18.70
2019-05-29T15:18:13.088Z,17.70
2019-05-29T15:20:41.132Z,17.80
2019-05-29T15:23:11.596Z,17.70
2019-05-29T15:25:41.986Z,17.90
2019-05-29T15:28:14.160Z,18.80
2019-05-29T15:30:45.177Z,17.90
2019-05-29T15:33:16.802Z,17.80
2019-05-29T15:35:47.294Z,18.90
2019-05-29T15:38:17.662Z,18.60
2019-05-29T15:40:48.266Z,18.40
2019-05-29T15:43:18.571Z,18.30
2019-05-29T15:45:49.219Z,19.30
2019-05-29T15:48:19.745Z,19.20
2019-05-29T15:50:50.128Z,19.30
2019-05-29T15:53:20.868Z,19.30
2019-05-29T15:55:51.294Z,18.90
2019-05-29T15:58:22.052Z,19.00
2019-05-29T16:00:52.855Z,18.30
2019-05-29T16:03:23.224Z,18.80
2019-05-29T16:05:54.539Z,18.50
2019-05-29T16:08:24.935Z,17.90
2019-05-29T16:10:55.603Z,17.70
2019-05-29T16:13:26.765Z,17.60
2019-05-29T16:15:57.134Z,17.70
2019-05-29T16:18:29.681Z,17.90
2019-05-29T16:20:59.856Z,18.10
2019-05-29T16:23:35.808Z,18.10
2019-05-29T16:26:02.882Z,18.00
2019-05-29T16:28:33.328Z,18.00
2019-05-29T16:31:03.661Z,18.10
2019-05-29T16:33:34.101Z,18.00
2019-05-29T16:36:04.467Z,18.10
2019-05-29T16:38:34.879Z,18.20
2019-05-29T16:41:05.458Z,17.80
2019-05-29T16:43:35.823Z,17.40
2019-05-29T16:46:06.534Z,17.90
2019-05-29T16:48:37.242Z,18.20
2019-05-29T16:51:07.620Z,18.90
2019-05-29T16:53:38.363Z,18.80
2019-05-29T16:56:08.726Z,18.30
2019-05-29T16:58:39.489Z,18.70
2019-05-29T17:01:09.852Z,19.50
2019-05-29T17:03:40.258Z,19.20
2019-05-29T17:06:10.592Z,18.90
2019-05-29T17:08:40.978Z,19.60
2019-05-29T17:11:11.710Z,19.60
2019-05-29T17:13:42.049Z,19.80
2019-05-29T17:16:12.426Z,19.50
2019-05-29T17:18:43.058Z,18.20
2019-05-29T17:21:14.437Z,17.70
2019-05-29T17:23:44.850Z,17.70
2019-05-29T17:26:16.726Z,18.80
2019-05-29T17:28:47.184Z,19.00
2019-05-29T17:31:18.851Z,19.10
2019-05-29T17:33:49.713Z,18.60
2019-05-29T17:36:21.085Z,18.90
2019-05-29T17:38:51.965Z,18.60
2019-05-29T17:41:23.263Z,17.30
2019-05-29T17:43:53.746Z,16.30
2019-05-29T17:46:24.114Z,16.70
2019-05-29T17:48:54.497Z,17.20
2019-05-29T17:51:26.085Z,17.10
2019-05-29T17:53:57.015Z,17.10
2019-05-29T17:56:36.292Z,17.90
2019-05-29T17:58:59.508Z,17.80
2019-05-29T18:01:30.966Z,17.70
2019-05-29T18:04:01.523Z,17.60
2019-05-29T18:06:31.901Z,17.60
2019-05-29T18:09:02.236Z,17.60
2019-05-29T18:11:32.997Z,17.60
2019-05-29T18:14:07.450Z,17.60
2019-05-29T18:16:35.478Z,18.20
2019-05-29T18:19:05.935Z,18.50
2019-05-29T18:21:36.254Z,19.10
2019-05-29T18:24:06.993Z,19.60
2019-05-29T18:26:46.868Z,20.00
2019-05-29T18:29:09.427Z,20.50
2019-05-29T18:31:40.053Z,20.50
2019-05-29T18:34:10.443Z,20.00
2019-05-29T18:36:40.813Z,20.70
2019-05-29T18:39:11.152Z,20.40
2019-05-29T18:41:41.576Z,20.60
2019-05-29T18:44:12.371Z,20.50
2019-05-29T18:46:42.728Z,20.40
2019-05-29T18:49:14.816Z,21.50
2019-05-29T18:51:45.177Z,20.70
2019-05-29T18:54:15.904Z,20.40
2019-05-29T18:57:13.033Z,20.70
2019-05-29T18:59:18.651Z,20.70
2019-05-29T19:01:49.314Z,21.10
2019-05-29T19:04:19.651Z,21.00
2019-05-29T19:06:50.055Z,20.90
2019-05-29T19:09:21.621Z,21.00
2019-05-29T19:11:52.489Z,21.10
2019-05-29T19:14:24.009Z,21.20
2019-05-29T19:16:55.197Z,21.50
2019-05-29T19:19:26.188Z,21.00
2019-05-29T19:21:56.672Z,21.20
2019-05-29T19:24:27.033Z,21.10
2019-05-29T19:26:57.831Z,21.10
2019-05-29T19:29:29.213Z,21.30
2019-05-29T19:32:00.131Z,21.30
2019-05-29T19:34:31.570Z,21.60
2019-05-29T19:37:02.727Z,21.70
2019-05-29T19:39:34.135Z,21.80
2019-05-29T19:42:05.000Z,22.20
2019-05-29T19:44:35.380Z,22.80
2019-05-29T19:47:05.799Z,22.70
2019-05-29T19:49:36.168Z,22.90
2019-05-29T19:52:06.917Z,23.30
2019-05-29T19:54:37.564Z,23.10
2019-05-29T19:57:08.299Z,23.40
2019-05-29T19:59:39.047Z,23.30
2019-05-29T20:02:09.413Z,23.20
2019-05-29T20:04:39.998Z,23.20
2019-05-29T20:07:10.353Z,23.20
2019-05-29T20:09:40.826Z,23.80
2019-05-29T20:12:11.223Z,24.50
2019-05-29T20:14:41.576Z,24.50
2019-05-29T20:17:11.955Z,24.80
2019-05-29T20:19:42.302Z,25.20
2019-05-29T20:22:12.668Z,25.20
2019-05-29T20:24:43.446Z,25.30
2019-05-29T20:27:14.162Z,25.70
2019-05-29T20:29:45.027Z,25.80
2019-05-29T20:32:15.475Z,26.00
2019-05-29T20:34:45.846Z,26.30
2019-05-29T20:37:16.595Z,26.70
2019-05-29T20:39:47.066Z,26.50
2019-05-29T20:42:17.435Z,27.10
2019-05-29T20:44:47.806Z,27.80
2019-05-29T20:47:18.152Z,27.90
2019-05-29T20:49:48.553Z,28.70
2019-05-29T20:52:18.893Z,29.00
2019-05-29T20:54:49.293Z,29.30
2019-05-29T20:57:19.634Z,29.40
2019-05-29T20:59:50.035Z,29.70
2019-05-29T21:02:20.370Z,31.80
2019-05-29T21:04:51.196Z,31.80
2019-05-29T21:07:21.611Z,32.40
2019-05-29T21:09:51.981Z,31.80
2019-05-29T21:12:22.796Z,31.80
2019-05-29T21:14:53.213Z,30.80
2019-05-29T21:17:23.846Z,31.10
2019-05-29T21:19:54.691Z,31.90
2019-05-29T21:22:25.346Z,32.10
2019-05-29T21:25:03.912Z,32.60
2019-05-29T21:27:28.622Z,34.30
2019-05-29T21:29:58.964Z,34.90
2019-05-29T21:32:29.365Z,34.80
2019-05-29T21:35:00.032Z,35.00
2019-05-29T21:37:30.685Z,35.50
2019-05-29T21:40:01.428Z,36.80
2019-05-29T21:42:31.792Z,35.70
2019-05-29T21:45:02.155Z,34.50
2019-05-29T21:47:32.522Z,34.80
2019-05-29T21:50:04.556Z,34.90
2019-05-29T21:52:34.918Z,35.90
2019-05-29T21:55:06.828Z,35.40
2019-05-29T22:01:19.740Z,35.10
2019-05-29T22:03:50.458Z,35.40
2019-05-29T22:06:20.838Z,35.70
2019-05-29T22:08:51.637Z,35.80
2019-05-29T22:11:22.245Z,37.80
2019-05-29T22:13:52.690Z,37.50
2019-05-29T22:16:23.070Z,37.60
2019-05-29T22:18:54.943Z,37.10
2019-05-29T22:21:25.424Z,37.30
2019-05-29T22:23:55.793Z,38.30
2019-05-29T22:26:26.180Z,38.30
2019-05-29T22:28:58.595Z,37.90
2019-05-29T22:31:29.137Z,38.30
2019-05-29T22:33:59.643Z,38.20
2019-05-29T22:36:30.507Z,38.20
2019-05-29T22:39:01.801Z,38.10
2019-05-29T22:41:32.606Z,38.40
2019-05-29T22:44:03.369Z,38.00
2019-05-29T22:46:33.779Z,38.00
2019-05-29T22:49:04.488Z,39.40
2019-05-29T22:51:34.881Z,39.60
2019-05-29T22:54:05.416Z,39.70
2019-05-29T22:56:35.754Z,37.80
2019-05-29T22:59:06.105Z,39.30
2019-05-29T23:01:36.457Z,40.10
2019-05-29T23:04:06.796Z,40.70
2019-05-29T23:06:37.530Z,40.60
2019-05-29T23:09:08.258Z,41.10
2019-05-29T23:11:38.618Z,41.10
2019-05-29T23:14:08.998Z,41.00
2019-05-29T23:16:39.450Z,41.20
2019-05-29T23:19:10.190Z,42.00
2019-05-29T23:21:41.238Z,41.90
2019-05-29T23:24:11.941Z,42.30
2019-05-29T23:26:42.300Z,42.30
2019-05-29T23:29:13.087Z,42.20
2019-05-29T23:31:43.718Z,42.80
2019-05-29T23:34:14.076Z,43.30
2019-05-29T23:36:44.506Z,43.90
2019-05-29T23:39:14.871Z,44.30
2019-05-29T23:41:45.705Z,45.10
2019-05-29T23:44:16.428Z,46.00
2019-05-29T23:46:47.129Z,46.60
2019-05-29T23:49:17.489Z,47.60
2019-05-29T23:51:48.297Z,48.00
2019-05-29T23:54:18.933Z,49.30
2019-05-29T23:56:49.260Z,51.40
2019-05-29T23:59:19.657Z,51.90
